Αρχική σελίδα
METAR-TAF:

METAR-TAF

Αεροδρόμια :

Vadsø, Νορβηγία

γεωγραφικό πλάτος: 70-04N, γεωγραφικό μήκος: 029-51E, υψόμετρο: 3 μ

Παρών καιρός

Η αναφορά έγινε 21 λεπτά πριν, στις 02:20 UTC
Άνεμος 2 kt από Β
Θερμοκρασία 17°C
Υγρασία 72%
Πίεση 1016 hPa
Ορατότητα 10 χλμ και άνω
Δεν υπάρχουν νέφη με βάση κάτω από τα 1500 μ. και δεν υπάρχουν νέφη σωρειτομελανίτες.

METAR: ENVD 230220Z 01002KT CAVOK 17/12 Q1016

Χρόνος: 04:41 (02:41 UTC)

Πρόγνωση Καιρού

Η αναφορά έγινε 12 ώρες και 41 λεπτά πριν, στις 14:00 UTC
Η πρόγνωση ισχύει από τις 22 στις 15 UTC έως τις 22 στις 23 UTC
Άνεμος 5 kt από Ν
Ορατότητα 10 χλμ και άνω
Δεν υπάρχουν νέφη με βάση κάτω από τα 1500 μ. και δεν υπάρχουν νέφη σωρειτομελανίτες.

TAF: ENVD 221400Z 2215/2223 19005KT CAVOK

Μετεωρολογικές αναφορές και προγνώσεις για περισσότερα από 4000 αεροδρόμια (δελτία METAR και TAF).

Οι διαθέσιμοι σταθμοί απεικονίζονται στο χάρτη με κίτρινες και κόκκινες κουκκίδες.

Μετακινήστε το ποντίκι πάνω από τις κουκκίδες για να δείτε το όνομα του σταθμού.

Στη συνέχεια, κάντε κλικ για να δείτε τις μετεωρολογικές αναφορές και τις προγνώσεις καιρού.

Για να αλλάξετε το χάρτη: κάντε κλικ στα πράσινα κουμπιά με τον μαύρο σταυρό για να ζουμάρετε, στο πράσινο κουμπί με την παύλα για να αφαιρέσετε το ζουμ ή στα πράσινα βέλη για να αντιπαραβάλλετε χάρτες.


METAR-TAF: